Terminal Aerodrome Forecast
Issued by NWS Portland, OR

Home | Current Version | Previous Version | Text Only | Print | Product List | Glossary On
Versions: 1 2 3 4 5 6 7 8 9 10 11 12 13 14 15 16 17 18 19 20 21 22 23 24 25 26 27 28 29
000
FTUS46 KPQR 211333 AAA
TAFTTD
TAF AMD
KTTD 211333Z 2114/2212 09004KT P6SM -RA SCT007 BKN015 OVC050
      TEMPO 2114/2116 BKN007
     FM211600 29005KT 4SM -RA BR OVC018
     FM212200 25005KT P6SM BKN035=

USA.gov is the U.S. government's official web portal to all federal, state and local government web resources and services.